Time;durP1;ratioP1;P1;durP2;ratioP2;P2;SDS_P1;SDS_P2;PMS_P1;PMS_P2;Temp;Humidity;BMP_temperature;BMP_pressure;BME280_temperature;BME280_humidity;BME280_pressure;Samples;Min_cycle;Max_cycle;Signal;HPM_P1;HPM_P2
2022/10/23 00:01:43;;;;;;;1.10;1.10;;;11.70;99.90;;;;;;490602;242;27824;-72
2022/10/23 00:03:44;;;;;;;1.30;1.20;;;11.70;99.90;;;;;;490585;242;28167;-69
2022/10/23 00:05:45;;;;;;;1.10;1.10;;;11.70;99.90;;;;;;490601;242;27908;-70
2022/10/23 00:07:47;;;;;;;1.50;1.40;;;11.70;99.90;;;;;;490398;242;27845;-69
2022/10/23 00:09:48;;;;;;;1.73;1.17;;;11.80;99.90;;;;;;490592;241;28094;-70
2022/10/23 00:11:50;;;;;;;1.20;1.10;;;11.80;99.90;;;;;;490599;241;27970;-69
2022/10/23 00:13:50;;;;;;;1.10;1.10;;;11.80;99.90;;;;;;490584;242;27952;-71
2022/10/23 00:15:52;;;;;;;1.73;1.10;;;11.80;99.90;;;;;;490043;242;27930;-71
2022/10/23 00:17:53;;;;;;;1.43;1.33;;;11.80;99.90;;;;;;490562;242;27998;-69
2022/10/23 00:19:54;;;;;;;1.10;1.10;;;11.80;99.90;;;;;;490594;242;28613;-69
2022/10/23 00:21:55;;;;;;;1.30;1.20;;;11.80;99.90;;;;;;490597;242;28631;-72
2022/10/23 00:23:57;;;;;;;1.20;1.10;;;11.80;99.90;;;;;;490607;242;28542;-69
2022/10/23 00:25:59;;;;;;;1.90;1.10;;;11.80;99.90;;;;;;490596;242;28549;-72
2022/10/23 00:27:59;;;;;;;1.37;1.27;;;11.70;99.90;;;;;;490545;242;27849;-69
2022/10/23 00:30:00;;;;;;;1.13;1.13;;;11.60;99.90;;;;;;490599;242;28105;-71
2022/10/23 00:32:02;;;;;;;1.03;1.03;;;11.60;99.90;;;;;;490604;241;28059;-70
2022/10/23 00:34:06;;;;;;;1.23;1.20;;;11.70;99.90;;;;;;490575;241;28142;-70
2022/10/23 00:36:04;;;;;;;2.60;1.40;;;11.60;99.90;;;;;;490303;241;27924;-71
2022/10/23 00:38:05;;;;;;;1.30;1.13;;;11.70;99.90;;;;;;490588;241;28191;-69
2022/10/23 00:40:07;;;;;;;1.00;1.00;;;11.70;99.90;;;;;;490497;242;27979;-71
2022/10/23 00:42:08;;;;;;;1.20;1.10;;;11.70;99.90;;;;;;490592;241;27943;-69
2022/10/23 00:44:09;;;;;;;1.27;1.17;;;11.70;99.90;;;;;;490600;241;27945;-70
2022/10/23 00:46:10;;;;;;;1.00;1.00;;;11.70;99.90;;;;;;490558;241;28272;-71
2022/10/23 00:48:12;;;;;;;1.30;1.20;;;11.70;99.90;;;;;;490393;242;28287;-69
2022/10/23 00:50:13;;;;;;;2.37;1.20;;;11.80;99.90;;;;;;490579;242;28556;-70
2022/10/23 00:52:14;;;;;;;1.30;1.30;;;11.70;99.90;;;;;;490605;241;27730;-70
2022/10/23 00:54:15;;;;;;;1.30;1.30;;;11.70;99.90;;;;;;490583;241;28097;-72
2022/10/23 00:56:17;;;;;;;1.20;1.20;;;11.70;99.90;;;;;;490310;242;28044;-71
2022/10/23 00:58:18;;;;;;;1.60;1.50;;;11.70;99.90;;;;;;490588;241;27707;-69
2022/10/23 01:00:19;;;;;;;1.63;1.20;;;11.70;99.90;;;;;;490608;242;28047;-69
2022/10/23 01:02:20;;;;;;;2.50;1.30;;;11.70;99.90;;;;;;490501;242;27947;-71
2022/10/23 01:04:22;;;;;;;1.40;1.30;;;11.70;99.90;;;;;;489948;242;28014;-69
2022/10/23 01:06:23;;;;;;;1.33;1.23;;;11.80;99.90;;;;;;490559;242;27965;-70
2022/10/23 01:08:24;;;;;;;1.47;1.37;;;11.80;99.90;;;;;;490593;241;28152;-69
2022/10/23 01:10:25;;;;;;;2.87;1.30;;;11.70;99.90;;;;;;490558;241;28554;-71
2022/10/23 01:12:27;;;;;;;1.40;1.30;;;11.70;99.90;;;;;;490601;242;28488;-72
2022/10/23 01:14:28;;;;;;;1.27;1.17;;;11.60;99.90;;;;;;490576;242;28519;-70
2022/10/23 01:16:29;;;;;;;1.33;1.23;;;11.60;99.90;;;;;;490554;242;28280;-70
2022/10/23 01:18:30;;;;;;;1.10;1.10;;;11.60;99.90;;;;;;490319;242;28117;-69
2022/10/23 01:20:32;;;;;;;1.20;1.20;;;11.60;99.90;;;;;;490602;242;27958;-69
2022/10/23 01:22:33;;;;;;;1.20;1.20;;;11.60;99.90;;;;;;489903;241;27977;-72
2022/10/23 01:24:36;;;;;;;4.00;1.40;;;11.60;99.90;;;;;;490611;241;27839;-69
2022/10/23 01:26:36;;;;;;;1.97;1.30;;;11.60;99.90;;;;;;490472;242;28146;-70
2022/10/23 01:28:37;;;;;;;1.30;1.20;;;11.60;99.90;;;;;;489947;242;27915;-70
2022/10/23 01:30:38;;;;;;;1.33;1.20;;;11.60;99.90;;;;;;490546;242;28025;-71
2022/10/23 01:32:39;;;;;;;1.37;1.07;;;11.60;99.90;;;;;;490607;242;27991;-72
2022/10/23 01:34:41;;;;;;;5.00;1.27;;;11.70;99.90;;;;;;490577;242;27952;-69
2022/10/23 01:36:42;;;;;;;1.10;1.10;;;11.70;99.90;;;;;;490549;242;28435;-69
2022/10/23 01:38:43;;;;;;;1.10;1.10;;;11.70;99.90;;;;;;490580;242;28543;-69
2022/10/23 01:40:44;;;;;;;1.20;1.20;;;11.60;99.90;;;;;;490587;242;28401;-70
2022/10/23 01:42:46;;;;;;;1.40;1.30;;;11.60;99.90;;;;;;490492;242;27945;-71
2022/10/23 01:44:47;;;;;;;1.60;1.30;;;11.60;99.90;;;;;;490458;242;27840;-70
2022/10/23 01:46:48;;;;;;;3.67;1.23;;;11.70;99.90;;;;;;490454;242;28079;-70
2022/10/23 01:48:50;;;;;;;1.20;1.20;;;11.70;99.90;;;;;;490590;241;28075;-69
2022/10/23 01:50:51;;;;;;;1.40;1.30;;;11.60;99.90;;;;;;490538;242;27949;-69
2022/10/23 01:52:52;;;;;;;1.23;1.17;;;11.60;99.90;;;;;;490583;241;28037;-71
2022/10/23 01:54:53;;;;;;;1.30;1.20;;;11.60;99.90;;;;;;490574;242;27926;-70
2022/10/23 01:56:54;;;;;;;1.53;1.10;;;11.60;99.90;;;;;;490492;242;28301;-69
2022/10/23 01:58:56;;;;;;;1.20;1.10;;;11.60;99.90;;;;;;490587;241;28081;-69
2022/10/23 02:00:57;;;;;;;1.03;1.03;;;11.60;99.90;;;;;;490581;242;28431;-70
2022/10/23 02:02:58;;;;;;;1.93;1.50;;;11.50;99.90;;;;;;490592;242;28586;-71
2022/10/23 02:04:59;;;;;;;2.13;1.40;;;11.50;99.90;;;;;;490577;241;28372;-70
2022/10/23 02:07:01;;;;;;;1.20;1.10;;;11.50;99.90;;;;;;490534;241;28188;-70
2022/10/23 02:09:02;;;;;;;2.93;1.30;;;11.50;99.90;;;;;;490582;241;27900;-68
2022/10/23 02:11:03;;;;;;;1.50;1.17;;;11.50;99.90;;;;;;490541;241;28072;-70
2022/10/23 02:13:04;;;;;;;2.90;1.30;;;11.60;99.90;;;;;;490586;242;28154;-72
2022/10/23 02:15:06;;;;;;;1.33;1.23;;;11.60;99.90;;;;;;490585;242;28073;-69
2022/10/23 02:17:07;;;;;;;1.93;1.30;;;11.60;99.90;;;;;;490532;242;27972;-70
2022/10/23 02:19:08;;;;;;;2.40;1.47;;;11.70;99.90;;;;;;490577;241;28143;-69
2022/10/23 02:21:09;;;;;;;2.53;1.57;;;11.70;99.90;;;;;;490593;242;28070;-70
2022/10/23 02:23:11;;;;;;;1.57;1.40;;;11.80;99.90;;;;;;490539;242;28035;-70
2022/10/23 02:25:12;;;;;;;1.10;1.10;;;11.80;99.90;;;;;;490315;242;28562;-69
2022/10/23 02:27:13;;;;;;;2.13;1.30;;;11.90;99.90;;;;;;490309;242;28649;-69
2022/10/23 02:29:14;;;;;;;1.30;1.20;;;11.80;99.90;;;;;;490375;242;28538;-69
2022/10/23 02:31:16;;;;;;;1.50;1.40;;;11.90;99.90;;;;;;490591;241;28670;-69
2022/10/23 02:33:17;;;;;;;1.50;1.40;;;11.90;99.90;;;;;;493232;240;27949;-73
2022/10/23 02:35:18;;;;;;;1.10;1.10;;;11.90;99.90;;;;;;494872;238;27945;-70
2022/10/23 02:37:19;;;;;;;1.20;1.10;;;11.90;99.90;;;;;;494851;240;28081;-70
2022/10/23 02:39:21;;;;;;;1.30;1.20;;;11.90;99.90;;;;;;494877;240;28203;-69
2022/10/23 02:41:22;;;;;;;1.30;1.20;;;11.80;99.90;;;;;;494886;240;28192;-70
2022/10/23 02:43:23;;;;;;;2.77;1.20;;;11.60;99.90;;;;;;494874;240;28358;-71
2022/10/23 02:45:24;;;;;;;1.50;1.40;;;11.40;99.90;;;;;;494888;240;27973;-69
2022/10/23 02:47:26;;;;;;;1.30;1.30;;;11.40;99.90;;;;;;494841;240;28162;-70
2022/10/23 02:49:27;;;;;;;1.20;1.20;;;11.50;99.90;;;;;;494872;240;28290;-70
2022/10/23 02:51:28;;;;;;;1.27;1.27;;;11.50;99.90;;;;;;494883;240;28575;-70
2022/10/23 02:53:29;;;;;;;1.10;1.10;;;11.50;99.90;;;;;;494895;240;28758;-71
2022/10/23 02:55:31;;;;;;;1.23;1.20;;;11.50;99.90;;;;;;494861;240;28527;-69
2022/10/23 02:57:32;;;;;;;4.23;1.00;;;11.40;99.90;;;;;;494841;240;28106;-69
2022/10/23 02:59:33;;;;;;;1.20;1.20;;;11.30;99.90;;;;;;494883;240;27970;-70
2022/10/23 03:01:34;;;;;;;1.30;1.20;;;11.40;99.90;;;;;;494872;239;27947;-71
2022/10/23 03:03:36;;;;;;;1.40;1.30;;;11.40;99.90;;;;;;494879;240;28159;-72
2022/10/23 03:05:37;;;;;;;1.60;1.50;;;11.50;99.90;;;;;;494881;240;28081;-70
2022/10/23 03:07:38;;;;;;;1.57;1.47;;;11.60;99.90;;;;;;494834;240;28179;-71
2022/10/23 03:09:39;;;;;;;1.40;1.30;;;11.60;99.90;;;;;;494878;240;28067;-70
2022/10/23 03:11:41;;;;;;;1.20;1.10;;;11.70;99.90;;;;;;494877;240;27711;-70
2022/10/23 03:13:42;;;;;;;1.30;1.20;;;11.70;99.90;;;;;;494873;240;28147;-71
2022/10/23 03:15:43;;;;;;;1.50;1.40;;;11.70;99.90;;;;;;494863;240;28420;-70
2022/10/23 03:17:44;;;;;;;2.00;1.30;;;11.70;99.90;;;;;;494864;239;28539;-71
2022/10/23 03:19:46;;;;;;;1.60;1.50;;;11.70;99.90;;;;;;494933;240;28715;-70
2022/10/23 03:21:47;;;;;;;1.30;1.20;;;11.70;99.90;;;;;;494910;240;28394;-71
2022/10/23 03:23:48;;;;;;;1.20;1.10;;;11.60;99.90;;;;;;494912;240;28070;-71
2022/10/23 03:25:49;;;;;;;1.30;1.20;;;11.50;99.90;;;;;;494911;240;28130;-71
2022/10/23 03:27:51;;;;;;;1.53;1.30;;;11.40;99.90;;;;;;494854;240;28240;-71
2022/10/23 03:29:52;;;;;;;1.50;1.40;;;11.40;99.90;;;;;;494909;240;28098;-70
2022/10/23 03:31:54;;;;;;;1.50;1.40;;;11.30;99.90;;;;;;494902;239;28078;-71
2022/10/23 03:33:54;;;;;;;1.17;1.17;;;11.20;99.90;;;;;;494840;240;27972;-72
2022/10/23 03:35:56;;;;;;;1.63;1.13;;;11.30;99.90;;;;;;494889;240;27926;-71
2022/10/23 03:37:57;;;;;;;1.17;1.07;;;11.30;99.90;;;;;;494831;240;28038;-71
2022/10/23 03:39:58;;;;;;;1.40;1.30;;;11.30;99.90;;;;;;494905;239;28093;-72
2022/10/23 03:41:59;;;;;;;3.20;1.40;;;11.40;99.90;;;;;;494889;240;28520;-70
2022/10/23 03:44:01;;;;;;;2.13;1.50;;;11.50;99.90;;;;;;494909;240;28500;-72
2022/10/23 03:46:07;;;;;;;2.37;1.50;;;11.40;99.90;;;;;;494885;240;28397;-71
2022/10/23 03:48:03;;;;;;;1.27;1.17;;;11.30;99.90;;;;;;494433;240;28557;-71
2022/10/23 03:50:04;;;;;;;1.30;1.30;;;11.20;99.90;;;;;;494898;240;27979;-73
2022/10/23 03:52:06;;;;;;;1.37;1.10;;;11.20;99.90;;;;;;494895;240;28273;-70
2022/10/23 03:54:07;;;;;;;1.50;1.40;;;11.30;99.90;;;;;;494899;240;27943;-71
2022/10/23 03:56:08;;;;;;;1.20;1.20;;;11.40;99.90;;;;;;494848;240;27908;-70
2022/10/23 03:58:09;;;;;;;1.70;1.40;;;11.30;99.90;;;;;;494901;240;27611;-70
2022/10/23 04:00:11;;;;;;;1.30;1.30;;;11.30;99.90;;;;;;494900;240;28158;-72
2022/10/23 04:02:12;;;;;;;1.10;1.10;;;11.30;99.90;;;;;;494902;240;28075;-70
2022/10/23 04:04:13;;;;;;;1.30;1.20;;;11.40;99.90;;;;;;494897;240;28075;-70
2022/10/23 04:06:14;;;;;;;1.30;1.30;;;11.40;99.90;;;;;;494844;240;28622;-71
2022/10/23 04:08:16;;;;;;;1.30;1.30;;;11.40;99.90;;;;;;494863;240;28330;-71
2022/10/23 04:10:17;;;;;;;1.73;1.10;;;11.40;99.90;;;;;;494896;240;28599;-73
2022/10/23 04:12:18;;;;;;;1.13;1.13;;;11.30;99.90;;;;;;494891;240;27850;-70
2022/10/23 04:14:19;;;;;;;1.20;1.20;;;11.30;99.90;;;;;;494888;240;28039;-72
2022/10/23 04:16:21;;;;;;;1.37;1.37;;;11.30;99.90;;;;;;494842;240;28571;-70
2022/10/23 04:18:22;;;;;;;1.30;1.30;;;11.30;99.90;;;;;;494895;240;27985;-71
2022/10/23 04:20:23;;;;;;;2.13;1.27;;;11.30;99.90;;;;;;494909;240;27974;-70
2022/10/23 04:22:24;;;;;;;1.07;1.07;;;11.40;99.90;;;;;;494887;240;27922;-71
2022/10/23 04:24:26;;;;;;;1.30;1.20;;;11.50;99.90;;;;;;494888;240;27977;-72
2022/10/23 04:26:27;;;;;;;1.30;1.30;;;11.50;99.90;;;;;;494857;240;28043;-71
2022/10/23 04:28:28;;;;;;;1.40;1.30;;;11.50;99.90;;;;;;494892;240;28078;-70
2022/10/23 04:30:29;;;;;;;1.40;1.30;;;11.60;99.90;;;;;;494894;240;28461;-71
2022/10/23 04:32:31;;;;;;;1.00;1.00;;;11.60;99.90;;;;;;494888;240;28537;-69
2022/10/23 04:34:32;;;;;;;1.23;1.20;;;11.50;99.90;;;;;;494887;240;28419;-72
2022/10/23 04:36:33;;;;;;;1.40;1.30;;;11.50;99.90;;;;;;494844;240;28522;-71
2022/10/23 04:38:34;;;;;;;1.00;1.00;;;11.40;99.90;;;;;;494895;240;28177;-70
2022/10/23 04:40:36;;;;;;;1.40;1.30;;;11.50;99.90;;;;;;494900;240;28105;-73
2022/10/23 04:42:37;;;;;;;2.63;1.60;;;11.40;99.90;;;;;;494908;240;28024;-71
2022/10/23 04:44:38;;;;;;;1.90;1.80;;;11.40;99.90;;;;;;494890;240;27842;-71
2022/10/23 04:46:39;;;;;;;1.50;1.43;;;11.40;99.90;;;;;;494858;240;27972;-70
2022/10/23 04:48:41;;;;;;;1.70;1.60;;;11.50;99.90;;;;;;494897;240;28018;-70
2022/10/23 04:50:42;;;;;;;1.70;1.60;;;11.60;99.90;;;;;;494889;240;28076;-71
2022/10/23 04:52:43;;;;;;;1.90;1.80;;;11.60;99.90;;;;;;494895;240;28164;-71
2022/10/23 04:54:44;;;;;;;1.53;1.43;;;11.60;99.90;;;;;;494900;240;28129;-71
2022/10/23 04:56:46;;;;;;;1.60;1.50;;;11.70;99.90;;;;;;494840;240;28565;-71
2022/10/23 04:58:47;;;;;;;1.60;1.50;;;11.90;99.90;;;;;;494885;240;28559;-70
2022/10/23 05:00:48;;;;;;;1.50;1.40;;;11.90;99.90;;;;;;494889;240;28780;-70
2022/10/23 05:02:49;;;;;;;1.63;1.50;;;11.80;99.90;;;;;;494899;240;27937;-70
2022/10/23 05:04:51;;;;;;;1.47;1.37;;;11.70;99.90;;;;;;494879;240;28038;-71
2022/10/23 05:06:52;;;;;;;1.50;1.40;;;11.70;99.90;;;;;;494855;240;28082;-71
2022/10/23 05:08:53;;;;;;;1.23;1.23;;;11.70;99.90;;;;;;494883;240;28040;-71
2022/10/23 05:10:54;;;;;;;1.27;1.27;;;11.70;99.90;;;;;;494896;240;28199;-71
2022/10/23 05:12:56;;;;;;;1.60;1.50;;;11.80;99.90;;;;;;494886;240;28053;-70
2022/10/23 05:14:57;;;;;;;1.30;1.30;;;11.80;99.90;;;;;;494891;240;27840;-70
2022/10/23 05:16:58;;;;;;;1.30;1.20;;;11.80;99.90;;;;;;494837;240;27932;-69
2022/10/23 05:18:59;;;;;;;1.60;1.50;;;11.80;99.90;;;;;;494885;240;28061;-70
2022/10/23 05:21:01;;;;;;;1.63;1.23;;;11.80;99.90;;;;;;494888;240;28549;-71
2022/10/23 05:23:02;;;;;;;1.50;1.40;;;11.70;99.90;;;;;;494884;240;28573;-69
2022/10/23 05:25:03;;;;;;;1.20;1.20;;;11.70;99.90;;;;;;494897;240;28543;-70
2022/10/23 05:27:04;;;;;;;1.40;1.30;;;11.80;99.90;;;;;;494853;240;29593;-70
2022/10/23 05:29:06;;;;;;;1.67;1.40;;;11.80;99.90;;;;;;494896;240;28189;-70
2022/10/23 05:31:08;;;;;;;1.67;1.57;;;11.80;99.90;;;;;;494899;240;27961;-72
2022/10/23 05:33:08;;;;;;;1.37;1.30;;;11.80;99.90;;;;;;494844;240;27942;-70
2022/10/23 05:35:09;;;;;;;1.47;1.47;;;11.80;99.90;;;;;;494869;240;27894;-70
2022/10/23 05:37:11;;;;;;;1.83;1.50;;;11.90;99.90;;;;;;494846;240;28055;-70
2022/10/23 05:39:12;;;;;;;1.70;1.40;;;12.00;99.90;;;;;;494879;240;28020;-70
2022/10/23 05:41:13;;;;;;;1.70;1.60;;;12.00;99.90;;;;;;494879;240;27948;-70
2022/10/23 05:43:14;;;;;;;4.70;1.97;;;12.00;99.90;;;;;;494894;240;28225;-70
2022/10/23 05:45:16;;;;;;;1.47;1.37;;;12.00;99.90;;;;;;494888;240;27965;-71
2022/10/23 05:47:17;;;;;;;1.43;1.40;;;12.00;99.90;;;;;;494827;240;28622;-71
2022/10/23 05:49:18;;;;;;;1.57;1.47;;;11.90;99.90;;;;;;494871;240;28439;-70
2022/10/23 05:51:21;;;;;;;2.97;1.60;;;11.90;99.90;;;;;;494882;240;28570;-71
2022/10/23 05:53:21;;;;;;;1.40;1.30;;;11.80;99.90;;;;;;494817;240;27988;-70
2022/10/23 05:55:22;;;;;;;1.33;1.23;;;11.80;99.90;;;;;;494872;238;27904;-70
2022/10/23 05:57:23;;;;;;;1.67;1.47;;;11.90;99.90;;;;;;494837;239;27951;-69
2022/10/23 05:59:25;;;;;;;1.70;1.40;;;12.00;99.90;;;;;;494887;240;28047;-71
2022/10/23 06:01:26;;;;;;;1.40;1.40;;;12.10;99.90;;;;;;494890;240;28103;-71
2022/10/23 06:03:27;;;;;;;1.60;1.50;;;12.00;99.90;;;;;;494875;240;28233;-70
2022/10/23 06:05:28;;;;;;;1.70;1.60;;;11.90;99.90;;;;;;494887;240;28192;-71
2022/10/23 06:07:30;;;;;;;3.90;1.47;;;12.00;99.90;;;;;;494842;240;28166;-72
2022/10/23 06:09:31;;;;;;;1.50;1.40;;;12.00;99.90;;;;;;494882;240;27952;-69
2022/10/23 06:11:32;;;;;;;4.00;1.50;;;12.20;99.90;;;;;;494886;240;28329;-71
2022/10/23 06:13:33;;;;;;;1.30;1.30;;;12.20;99.90;;;;;;494875;240;28536;-70
2022/10/23 06:15:35;;;;;;;1.90;1.80;;;12.20;99.90;;;;;;494888;240;28523;-70
2022/10/23 06:17:36;;;;;;;1.70;1.60;;;12.20;99.90;;;;;;494844;240;28785;-71
2022/10/23 06:19:37;;;;;;;1.60;1.50;;;12.20;99.90;;;;;;494891;240;28134;-70
2022/10/23 06:21:38;;;;;;;1.47;1.40;;;12.00;99.90;;;;;;494884;240;28048;-71
2022/10/23 06:23:40;;;;;;;3.90;1.60;;;11.90;99.90;;;;;;494882;240;28157;-69
2022/10/23 06:25:41;;;;;;;1.40;1.40;;;11.80;99.90;;;;;;494890;240;28169;-70
2022/10/23 06:27:42;;;;;;;1.50;1.40;;;11.80;99.90;;;;;;494849;240;27725;-69
2022/10/23 06:29:43;;;;;;;1.40;1.33;;;11.80;99.90;;;;;;494892;240;27915;-70
2022/10/23 06:31:45;;;;;;;1.40;1.40;;;11.80;99.90;;;;;;494887;240;28085;-70
2022/10/23 06:33:46;;;;;;;1.63;1.53;;;11.80;99.90;;;;;;494876;240;28036;-69
2022/10/23 06:35:47;;;;;;;1.50;1.40;;;11.90;99.90;;;;;;494886;240;28110;-72
2022/10/23 06:37:48;;;;;;;1.40;1.30;;;11.80;99.90;;;;;;494847;240;28840;-70
2022/10/23 06:39:50;;;;;;;1.30;1.30;;;11.80;99.90;;;;;;494880;240;28432;-70
2022/10/23 06:41:51;;;;;;;5.00;1.60;;;11.90;99.90;;;;;;494871;240;28528;-71
2022/10/23 06:43:52;;;;;;;1.60;1.50;;;11.90;99.90;;;;;;494881;240;28183;-69
2022/10/23 06:45:53;;;;;;;1.33;1.33;;;12.00;99.90;;;;;;494889;240;28090;-71
2022/10/23 06:47:55;;;;;;;1.50;1.40;;;12.00;99.90;;;;;;494843;240;28063;-70
2022/10/23 06:49:56;;;;;;;2.30;1.40;;;12.10;99.90;;;;;;494888;240;28176;-69
2022/10/23 06:51:57;;;;;;;1.80;1.70;;;12.10;99.90;;;;;;494915;240;28197;-71
2022/10/23 06:53:58;;;;;;;1.33;1.33;;;12.30;99.90;;;;;;494903;240;28145;-69
2022/10/23 06:56:00;;;;;;;1.30;1.20;;;12.40;99.90;;;;;;494897;240;28073;-70
2022/10/23 06:58:01;;;;;;;1.93;1.40;;;12.50;99.90;;;;;;494872;240;28060;-70
2022/10/23 07:00:02;;;;;;;1.30;1.20;;;12.50;99.90;;;;;;494887;240;28478;-71
2022/10/23 07:02:03;;;;;;;1.63;1.20;;;12.40;99.90;;;;;;494905;240;28649;-70
2022/10/23 07:04:05;;;;;;;1.30;1.30;;;12.50;99.90;;;;;;494913;240;28423;-70
2022/10/23 07:06:06;;;;;;;1.93;1.20;;;12.50;99.90;;;;;;494870;238;28630;-74
2022/10/23 07:08:07;;;;;;;1.47;1.37;;;12.60;99.90;;;;;;494896;240;28768;-69
2022/10/23 07:10:08;;;;;;;1.43;1.33;;;12.70;99.90;;;;;;494901;240;28111;-71
2022/10/23 07:12:10;;;;;;;1.30;1.30;;;12.70;99.90;;;;;;494906;240;28079;-71
2022/10/23 07:14:11;;;;;;;1.30;1.30;;;12.80;99.90;;;;;;494889;240;28185;-70
2022/10/23 07:16:12;;;;;;;1.97;1.70;;;12.90;99.90;;;;;;494855;240;28068;-70
2022/10/23 07:18:15;;;;;;;1.40;1.40;;;12.90;99.90;;;;;;494891;240;28273;-72
2022/10/23 07:20:15;;;;;;;1.87;1.43;;;13.00;99.90;;;;;;494817;240;28409;-69
2022/10/23 07:22:16;;;;;;;1.60;1.50;;;13.00;99.90;;;;;;494908;240;28543;-71
2022/10/23 07:24:17;;;;;;;1.30;1.20;;;13.10;99.90;;;;;;494902;240;28034;-71
2022/10/23 07:26:18;;;;;;;1.20;1.20;;;13.20;99.90;;;;;;494859;240;28621;-71
2022/10/23 07:28:20;;;;;;;1.50;1.43;;;13.10;99.90;;;;;;494889;240;29264;-71
2022/10/23 07:30:21;;;;;;;1.50;1.40;;;13.00;99.90;;;;;;494892;240;28765;-70
2022/10/23 07:32:23;;;;;;;1.70;1.60;;;13.00;99.90;;;;;;494890;240;28595;-71
2022/10/23 07:34:23;;;;;;;1.70;1.60;;;13.20;99.90;;;;;;494870;238;28325;-70
2022/10/23 07:36:25;;;;;;;1.63;1.53;;;13.30;99.90;;;;;;494859;240;28369;-70
2022/10/23 07:38:27;;;;;;;1.70;1.60;;;;;;;;;;494915;240;28135;-70
2022/10/23 07:40:28;;;;;;;2.93;1.67;;;13.60;99.90;;;;;;494910;240;27073;-71
2022/10/23 07:42:30;;;;;;;1.50;1.40;;;13.70;99.90;;;;;;494896;240;28920;-70
2022/10/23 07:44:31;;;;;;;1.93;1.53;;;13.90;99.90;;;;;;494888;240;28741;-71
2022/10/23 07:46:32;;;;;;;1.70;1.60;;;14.00;99.90;;;;;;494863;240;29160;-70
2022/10/23 07:48:33;;;;;;;1.37;1.30;;;14.10;99.90;;;;;;494898;240;28313;-72
2022/10/23 07:50:36;;;;;;;1.47;1.37;;;;;;;;;;494910;240;28188;-70
2022/10/23 07:52:37;;;;;;;1.77;1.67;;;14.20;99.90;;;;;;494894;240;26690;-71
2022/10/23 07:54:38;;;;;;;1.50;1.40;;;14.20;99.90;;;;;;494905;240;28743;-70
2022/10/23 07:56:39;;;;;;;1.47;1.37;;;14.40;99.90;;;;;;494847;240;28765;-71
2022/10/23 07:58:41;;;;;;;5.90;1.50;;;14.50;99.90;;;;;;494900;240;28861;-72
2022/10/23 08:00:43;;;;;;;1.40;1.40;;;14.60;99.90;;;;;;494889;240;28642;-70
2022/10/23 08:02:43;;;;;;;1.13;1.13;;;14.80;99.90;;;;;;494817;240;28292;-71
2022/10/23 08:04:44;;;;;;;1.23;1.23;;;14.80;99.90;;;;;;494898;240;28486;-69
2022/10/23 08:06:46;;;;;;;1.30;1.20;;;14.80;99.90;;;;;;494861;240;28626;-70
2022/10/23 08:08:47;;;;;;;1.97;1.53;;;15.00;99.90;;;;;;494903;240;28564;-71
2022/10/23 08:10:48;;;;;;;1.47;1.40;;;15.00;99.90;;;;;;494894;240;28612;-70
2022/10/23 08:12:49;;;;;;;2.03;1.60;;;15.20;99.90;;;;;;494899;240;28803;-70
2022/10/23 08:14:51;;;;;;;1.80;1.70;;;15.20;99.90;;;;;;494897;240;28283;-72
2022/10/23 08:16:52;;;;;;;1.80;1.70;;;15.30;99.90;;;;;;494853;240;28570;-70
2022/10/23 08:18:53;;;;;;;1.37;1.30;;;15.30;99.90;;;;;;494906;240;29048;-71
2022/10/23 08:20:54;;;;;;;1.63;1.53;;;15.40;99.90;;;;;;494893;240;29090;-70
2022/10/23 08:22:56;;;;;;;1.63;1.50;;;15.50;99.90;;;;;;494884;240;29304;-71
2022/10/23 08:24:57;;;;;;;1.67;1.40;;;15.60;99.90;;;;;;494902;240;28984;-70
2022/10/23 08:26:58;;;;;;;1.23;1.23;;;15.70;99.90;;;;;;494849;240;28857;-70
2022/10/23 08:28:59;;;;;;;1.50;1.40;;;15.80;99.90;;;;;;494901;240;28819;-70
2022/10/23 08:31:01;;;;;;;2.87;1.50;;;16.00;99.90;;;;;;494878;240;28798;-71
2022/10/23 08:33:02;;;;;;;1.03;1.03;;;16.00;99.90;;;;;;494887;240;28898;-72
2022/10/23 08:35:03;;;;;;;1.33;1.30;;;16.10;99.90;;;;;;494898;240;28893;-70
2022/10/23 08:37:04;;;;;;;1.40;1.30;;;16.20;99.90;;;;;;494834;240;28786;-70
2022/10/23 08:39:06;;;;;;;1.40;1.30;;;16.20;99.90;;;;;;494897;240;28823;-71
2022/10/23 08:41:07;;;;;;;1.20;1.10;;;16.30;99.90;;;;;;494896;240;28794;-70
2022/10/23 08:43:08;;;;;;;1.67;1.20;;;16.30;99.90;;;;;;494887;240;28897;-71
2022/10/23 08:45:10;;;;;;;1.00;1.00;;;16.40;99.90;;;;;;494876;240;29363;-72
2022/10/23 08:47:11;;;;;;;1.23;1.23;;;16.40;99.90;;;;;;494851;240;29375;-70
2022/10/23 08:49:12;;;;;;;1.40;1.30;;;16.40;99.90;;;;;;494884;240;29276;-73
2022/10/23 08:51:13;;;;;;;1.90;1.30;;;16.40;99.90;;;;;;494887;240;28803;-70
2022/10/23 08:53:15;;;;;;;1.57;1.47;;;16.40;99.90;;;;;;494905;240;28899;-70
2022/10/23 08:55:16;;;;;;;1.30;1.30;;;16.40;99.90;;;;;;494883;240;28818;-71
2022/10/23 08:57:17;;;;;;;1.27;1.27;;;16.40;99.90;;;;;;494813;240;28698;-70
2022/10/23 08:59:21;;;;;;;12.30;1.30;;;16.50;99.90;;;;;;489006;240;28815;-72
2022/10/23 09:01:20;;;;;;;1.10;1.10;;;16.50;99.90;;;;;;475748;249;28955;-70
2022/10/23 09:03:21;;;;;;;1.13;1.03;;;16.50;99.90;;;;;;475898;248;28913;-70
2022/10/23 09:05:22;;;;;;;1.10;1.10;;;16.50;99.90;;;;;;474051;248;28950;-72
2022/10/23 09:07:25;;;;;;;1.10;1.10;;;16.50;99.90;;;;;;475861;248;28885;-70
2022/10/23 09:09:25;;;;;;;1.20;1.13;;;16.60;99.90;;;;;;477872;242;29079;-71
2022/10/23 09:11:26;;;;;;;1.53;1.43;;;16.60;99.90;;;;;;486790;244;29006;-69
2022/10/23 09:13:27;;;;;;;1.30;1.20;;;16.60;99.90;;;;;;486777;242;29108;-70
2022/10/23 09:15:28;;;;;;;1.43;1.33;;;16.60;99.90;;;;;;486772;242;28546;-73
2022/10/23 09:17:30;;;;;;;1.30;1.20;;;16.60;99.90;;;;;;486743;243;28553;-70
2022/10/23 09:19:31;;;;;;;2.73;1.40;;;16.60;99.90;;;;;;486786;244;28550;-71
2022/10/23 09:21:32;;;;;;;1.40;1.30;;;16.60;99.90;;;;;;486784;243;28543;-70
2022/10/23 09:23:33;;;;;;;0.93;0.93;;;16.60;99.90;;;;;;486776;242;28544;-70
2022/10/23 09:25:35;;;;;;;1.43;1.33;;;16.70;99.90;;;;;;486774;241;28542;-72
2022/10/23 09:27:36;;;;;;;1.43;1.33;;;16.80;99.90;;;;;;486736;242;28554;-70
2022/10/23 09:29:37;;;;;;;1.40;1.30;;;16.80;99.90;;;;;;486776;240;28544;-72
2022/10/23 09:31:38;;;;;;;1.93;1.50;;;16.90;99.90;;;;;;486769;242;28647;-71
2022/10/23 09:33:40;;;;;;;1.50;1.37;;;16.80;99.90;;;;;;486775;244;29092;-71
2022/10/23 09:35:41;;;;;;;1.50;1.40;;;16.80;99.90;;;;;;486779;244;29137;-73
2022/10/23 09:37:42;;;;;;;1.33;1.23;;;16.80;99.90;;;;;;486760;243;28985;-70
2022/10/23 09:39:43;;;;;;;1.47;1.40;;;16.70;99.90;;;;;;486776;244;28551;-70
2022/10/23 09:41:45;;;;;;;1.50;1.40;;;16.70;99.90;;;;;;486794;243;28638;-71
2022/10/23 09:43:46;;;;;;;2.37;1.50;;;16.70;99.90;;;;;;486776;244;28566;-71
2022/10/23 09:45:47;;;;;;;1.47;1.40;;;16.70;99.90;;;;;;486762;241;28567;-73
2022/10/23 09:47:48;;;;;;;1.63;1.23;;;16.70;99.90;;;;;;486726;243;28561;-70
2022/10/23 09:49:50;;;;;;;1.30;1.30;;;16.70;99.90;;;;;;486744;241;28693;-71
2022/10/23 09:51:51;;;;;;;2.97;1.40;;;16.70;99.90;;;;;;486760;244;28558;-72
2022/10/23 09:53:52;;;;;;;1.27;1.27;;;16.80;99.90;;;;;;486782;243;28627;-71
2022/10/23 09:55:53;;;;;;;1.20;1.10;;;16.80;99.90;;;;;;486784;243;28557;-73
2022/10/23 09:57:55;;;;;;;1.50;1.40;;;16.90;99.90;;;;;;486694;244;29117;-72
2022/10/23 09:59:56;;;;;;;1.30;1.20;;;17.00;99.90;;;;;;486772;243;29139;-71
2022/10/23 10:01:57;;;;;;;1.47;1.23;;;17.00;99.90;;;;;;486781;243;29204;-70
2022/10/23 10:03:58;;;;;;;1.80;1.30;;;17.00;99.90;;;;;;486787;243;29086;-70
2022/10/23 10:06:00;;;;;;;1.60;1.50;;;17.10;99.90;;;;;;486779;243;28536;-73
2022/10/23 10:08:01;;;;;;;1.80;1.10;;;17.20;99.90;;;;;;486771;240;28658;-70
2022/10/23 10:10:02;;;;;;;1.20;1.10;;;17.30;99.90;;;;;;486767;243;28551;-71
2022/10/23 10:12:03;;;;;;;1.43;1.03;;;17.30;99.90;;;;;;486786;241;28533;-70
2022/10/23 10:14:05;;;;;;;1.13;1.07;;;17.40;99.90;;;;;;486785;243;28543;-71
2022/10/23 10:16:06;;;;;;;1.43;1.27;;;17.50;99.90;;;;;;486743;242;28554;-74
2022/10/23 10:18:07;;;;;;;1.93;1.40;;;17.50;99.90;;;;;;486763;243;28534;-70
2022/10/23 10:20:08;;;;;;;1.70;1.50;;;17.50;99.90;;;;;;486795;243;28553;-71
2022/10/23 10:22:10;;;;;;;1.00;1.00;;;17.70;99.90;;;;;;486772;244;29104;-70
2022/10/23 10:24:11;;;;;;;1.00;1.00;;;17.70;99.90;;;;;;486768;244;29138;-70
2022/10/23 10:26:12;;;;;;;1.43;1.13;;;17.80;99.90;;;;;;486749;242;29013;-71
2022/10/23 10:28:13;;;;;;;1.00;1.00;;;17.90;99.90;;;;;;486788;243;29099;-70
2022/10/23 10:30:15;;;;;;;1.07;1.00;;;17.90;99.90;;;;;;486814;243;28545;-71
2022/10/23 10:32:16;;;;;;;1.27;1.20;;;17.90;99.90;;;;;;486807;244;28633;-70